Time;durP1;ratioP1;P1;durP2;ratioP2;P2;SDS_P1;SDS_P2;PMS_P1;PMS_P2;Temp;Humidity;BMP_temperature;BMP_pressure;BME280_temperature;BME280_humidity;BME280_pressure;Samples;Min_cycle;Max_cycle;Signal;HPM_P1;HPM_P2
2023/05/10 00:01:37;;;;;;;6.68;4.00;;;;;;;17.90;35.75;100889.78;5047143;27;99629;-74
2023/05/10 00:04:03;;;;;;;5.57;4.00;;;;;;;17.84;35.90;100884.84;5046009;27;101975;-75
2023/05/10 00:06:30;;;;;;;11.50;4.50;;;;;;;17.91;35.67;100887.97;5043891;27;97074;-75
2023/05/10 00:08:56;;;;;;;6.90;4.50;;;;;;;17.98;35.68;100886.63;5045009;27;96977;-75
2023/05/10 00:11:22;;;;;;;8.80;4.13;;;;;;;17.77;36.14;100891.53;5041716;27;99266;-75
2023/05/10 00:13:49;;;;;;;8.73;4.35;;;;;;;17.80;36.20;100877.94;5046271;27;99239;-74
2023/05/10 00:16:15;;;;;;;6.82;4.43;;;;;;;17.87;35.99;100884.63;5045593;27;96866;-74
2023/05/10 00:18:43;;;;;;;5.72;4.38;;;;;;;18.04;35.67;100877.34;5052682;27;98828;-74
2023/05/10 00:21:10;;;;;;;8.20;4.30;;;;;;;17.99;35.78;100876.78;5045058;27;98973;-76
2023/05/10 00:23:36;;;;;;;5.57;4.47;;;;;;;17.76;36.06;100875.56;5046055;27;98846;-75
2023/05/10 00:26:02;;;;;;;5.47;4.10;;;;;;;17.76;36.14;100872.91;5044275;27;97624;-76
2023/05/10 00:28:29;;;;;;;6.63;4.50;;;;;;;17.77;36.18;100867.47;5037948;27;96926;-76
2023/05/10 00:30:55;;;;;;;6.50;4.63;;;;;;;17.52;36.79;100859.25;5039614;27;99374;-75
2023/05/10 00:33:22;;;;;;;9.60;4.00;;;;;;;17.35;36.99;100860.28;5041048;27;98717;-76
2023/05/10 00:35:49;;;;;;;5.30;4.65;;;;;;;17.46;36.86;100854.25;5038882;27;97805;-75
2023/05/10 00:38:16;;;;;;;7.15;4.90;;;;;;;17.28;37.12;100853.59;5042635;27;96967;-75
2023/05/10 00:40:42;;;;;;;6.80;4.55;;;;;;;17.43;37.01;100851.81;5049015;27;98969;-75
2023/05/10 00:43:09;;;;;;;8.20;4.18;;;;;;;17.35;37.00;100849.59;5041929;27;98957;-75
2023/05/10 00:45:37;;;;;;;9.18;4.50;;;;;;;17.49;36.89;100846.06;5051621;27;97315;-76
2023/05/10 00:48:04;;;;;;;7.70;4.82;;;;;;;17.30;37.34;100850.84;5046070;27;97287;-75
2023/05/10 00:50:30;;;;;;;9.60;4.05;;;;;;;17.41;37.11;100854.56;5047653;27;97805;-75
2023/05/10 00:52:58;;;;;;;7.60;4.45;;;;;;;17.44;37.13;100848.19;5043735;27;98815;-75
2023/05/10 00:55:25;;;;;;;7.80;4.53;;;;;;;17.31;37.50;100847.22;5044937;27;101347;-75
2023/05/10 00:57:52;;;;;;;9.55;4.57;;;;;;;17.22;37.50;100847.78;5046385;27;97164;-74
2023/05/10 01:00:19;;;;;;;8.95;4.47;;;;;;;17.30;37.44;100842.81;5043962;27;99404;-75
2023/05/10 01:02:46;;;;;;;5.50;4.57;;;;;;;17.32;37.39;100840.94;5050392;27;99079;-74
2023/05/10 01:05:13;;;;;;;12.65;5.18;;;;;;;17.33;37.32;100839.94;5043097;27;97626;-76
2023/05/10 01:07:40;;;;;;;8.13;4.63;;;;;;;17.03;37.90;100838.22;5042926;27;96925;-76
2023/05/10 01:10:10;;;;;;;9.38;5.35;;;;;;;17.21;37.61;100840.72;5044680;27;101782;-76
2023/05/10 01:12:40;;;;;;;8.50;5.18;;;;;;;16.98;38.12;100834.13;5039584;27;98893;-76
2023/05/10 01:15:09;;;;;;;10.20;4.78;;;;;;;16.85;38.35;100828.66;5044618;27;96985;-75
2023/05/10 01:17:36;;;;;;;8.48;5.05;;;;;;;16.92;38.16;100835.34;5041474;27;97012;-76
2023/05/10 01:20:03;;;;;;;6.63;4.88;;;;;;;16.91;38.29;100830.09;5042824;27;99165;-75
2023/05/10 01:23:00;;;;;;;9.48;4.82;;;;;;;17.00;38.08;100825.03;5040125;27;98963;-75
2023/05/10 01:25:54;;;;;;;7.88;4.72;;;;;;;16.93;38.13;100826.41;5049736;27;97128;-75
2023/05/10 01:28:48;;;;;;;17.33;5.97;;;;;;;16.86;38.35;100829.53;5035154;27;97537;-75
2023/05/10 01:31:29;;;;;;;11.90;4.63;;;;;;;16.81;38.42;100832.44;5044685;27;99334;-74
2023/05/10 01:34:02;;;;;;;6.93;4.95;;;;;;;16.60;38.95;100826.59;5049604;27;99804;-74
2023/05/10 01:36:32;;;;;;;7.25;4.30;;;;;;;16.71;38.84;100818.81;5045153;27;96857;-74
2023/05/10 01:39:03;;;;;;;6.82;4.55;;;;;;;16.78;38.55;100821.13;5044855;27;97096;-73
2023/05/10 01:41:37;;;;;;;6.57;5.03;;;;;;;16.68;38.64;100820.78;5045225;27;98734;-73
2023/05/10 01:44:11;;;;;;;6.80;4.18;;;;;;;16.66;38.65;100822.72;5046222;27;99510;-73
2023/05/10 01:46:40;;;;;;;6.07;4.57;;;;;;;16.64;38.85;100819.25;5039885;27;96839;-73
2023/05/10 01:49:11;;;;;;;6.80;5.03;;;;;;;16.58;39.04;100812.47;5044223;27;97743;-73
2023/05/10 01:51:42;;;;;;;10.35;4.90;;;;;;;16.50;39.24;100817.38;5042262;27;98915;-75
2023/05/10 01:54:10;;;;;;;6.43;4.00;;;;;;;16.49;39.31;100820.13;5041353;27;99151;-75
2023/05/10 01:56:40;;;;;;;6.88;4.60;;;;;;;16.44;39.44;100817.75;5041065;27;96940;-74
2023/05/10 01:59:12;;;;;;;8.52;4.57;;;;;;;16.44;39.53;100809.75;5047658;27;97133;-74
2023/05/10 02:01:39;;;;;;;7.30;4.95;;;;;;;16.45;39.39;100810.59;5043994;27;98942;-74
2023/05/10 02:04:09;;;;;;;7.00;4.60;;;;;;;16.53;39.35;100806.53;5045475;27;98973;-75
2023/05/10 02:06:37;;;;;;;7.97;4.30;;;;;;;16.62;39.38;100813.16;5048431;27;97088;-75
2023/05/10 02:09:04;;;;;;;6.32;4.63;;;;;;;16.67;39.15;100819.09;5046150;27;96736;-75
2023/05/10 02:11:31;;;;;;;6.40;4.93;;;;;;;16.53;39.40;100813.69;5047196;27;97552;-75
2023/05/10 02:13:59;;;;;;;6.65;4.50;;;;;;;16.31;39.85;100806.94;5044178;27;101222;-75
2023/05/10 02:16:30;;;;;;;9.75;5.00;;;;;;;16.41;39.77;100812.56;5044437;27;96889;-74
2023/05/10 02:18:59;;;;;;;5.57;4.32;;;;;;;16.33;39.75;100798.84;5047940;27;97156;-74
2023/05/10 02:21:51;;;;;;;7.75;4.70;;;;;;;16.19;40.17;100807.66;5041631;27;98917;-75
2023/05/10 02:24:19;;;;;;;7.95;4.78;;;;;;;16.06;40.54;100803.97;5041168;27;99504;-76
2023/05/10 02:26:48;;;;;;;12.07;4.78;;;;;;;16.06;40.34;100798.63;5041867;27;96960;-76
2023/05/10 02:29:16;;;;;;;8.35;5.20;;;;;;;16.26;40.03;100806.34;5041066;27;96895;-75
2023/05/10 02:31:43;;;;;;;5.85;4.22;;;;;;;16.01;40.54;100797.19;5038748;27;97975;-75
2023/05/10 02:34:12;;;;;;;8.00;4.35;;;;;;;16.05;40.64;100802.25;5041821;27;100302;-75
2023/05/10 02:36:39;;;;;;;8.13;4.75;;;;;;;16.02;40.41;100801.53;5045947;27;96908;-74
2023/05/10 02:39:09;;;;;;;9.32;4.55;;;;;;;16.10;40.63;100797.50;5038529;27;97334;-75
2023/05/10 02:41:37;;;;;;;7.85;4.85;;;;;;;15.89;40.77;100798.72;5045047;27;99238;-75
2023/05/10 02:44:08;;;;;;;6.60;4.55;;;;;;;16.01;40.75;100799.84;5038609;27;99234;-74
2023/05/10 02:46:35;;;;;;;6.53;4.18;;;;;;;16.10;40.54;100796.63;5042009;27;96763;-74
2023/05/10 02:49:02;;;;;;;9.43;4.85;;;;;;;16.13;40.31;100799.16;5037464;27;97622;-75
2023/05/10 02:51:33;;;;;;;8.93;4.75;;;;;;;15.93;40.87;100795.81;5037937;27;99674;-74
2023/05/10 02:54:08;;;;;;;7.88;4.57;;;;;;;15.84;41.11;100796.31;5035566;27;98786;-73
2023/05/10 02:56:41;;;;;;;6.75;4.38;;;;;;;15.72;41.48;100790.81;5042683;27;96868;-75
2023/05/10 02:59:08;;;;;;;6.00;4.32;;;;;;;15.78;41.26;100793.13;5039381;27;97152;-75
2023/05/10 03:01:34;;;;;;;7.18;4.40;;;;;;;15.84;41.08;100793.66;5040083;27;98892;-74
2023/05/10 03:04:01;;;;;;;9.10;4.85;;;;;;;15.94;40.86;100791.34;5035968;27;99125;-73
2023/05/10 03:06:28;;;;;;;8.32;4.65;;;;;;;15.88;41.15;100794.34;5039152;27;97885;-75
2023/05/10 03:08:55;;;;;;;9.35;4.40;;;;;;;15.98;40.84;100805.34;5034909;27;96961;-74
2023/05/10 03:11:32;;;;;;;7.75;4.65;;;;;;;15.97;40.98;100796.47;5035939;27;98185;-74
2023/05/10 03:14:11;;;;;;;5.65;4.28;;;;;;;16.05;40.52;100804.03;5041327;27;98845;-74
2023/05/10 03:16:45;;;;;;;10.77;4.72;;;;;;;15.89;40.91;100796.91;5035993;27;96804;-74
2023/05/10 03:19:17;;;;;;;10.30;4.85;;;;;;;15.73;41.28;100789.88;5047940;27;96771;-73
2023/05/10 03:21:50;;;;;;;9.73;4.82;;;;;;;15.83;41.08;100799.94;5041665;27;99456;-74
2023/05/10 03:24:19;;;;;;;6.07;4.30;;;;;;;15.82;41.06;100792.00;5041712;27;99477;-74
2023/05/10 03:26:46;;;;;;;9.98;4.35;;;;;;;15.76;41.14;100793.22;5039184;27;96981;-74
2023/05/10 03:29:15;;;;;;;7.97;4.25;;;;;;;15.88;40.77;100799.69;5040532;27;97681;-74
2023/05/10 03:31:43;;;;;;;7.63;3.85;;;;;;;15.73;41.25;100796.06;5041814;27;99159;-77
2023/05/10 03:34:12;;;;;;;5.30;3.92;;;;;;;15.68;41.23;100791.94;5044802;27;101814;-75
2023/05/10 03:36:39;;;;;;;8.15;4.50;;;;;;;15.70;41.30;100787.38;5041953;27;97617;-75
2023/05/10 03:39:05;;;;;;;8.00;4.25;;;;;;;15.79;40.89;100784.22;5041326;27;97239;-74
2023/05/10 03:41:32;;;;;;;5.43;3.72;;;;;;;15.60;41.50;100787.03;5039951;27;97597;-75
2023/05/10 03:43:58;;;;;;;6.25;4.28;;;;;;;15.65;41.39;100797.44;5046446;27;101440;-76
2023/05/10 03:46:26;;;;;;;10.27;4.65;;;;;;;15.71;41.22;100786.44;5035997;27;98436;-75
2023/05/10 03:48:52;;;;;;;11.93;4.22;;;;;;;15.56;41.48;100787.31;5036580;27;97546;-75
2023/05/10 03:51:19;;;;;;;13.68;4.28;;;;;;;15.59;41.50;100779.13;5041037;27;102399;-74
2023/05/10 03:53:46;;;;;;;8.30;4.32;;;;;;;15.53;41.37;100780.34;5037181;27;99184;-74
2023/05/10 03:56:12;;;;;;;9.68;4.50;;;;;;;15.80;40.88;100783.25;5038087;27;97236;-74
2023/05/10 03:58:38;;;;;;;8.52;4.18;;;;;;;15.80;40.69;100777.94;5044219;27;96963;-75
2023/05/10 04:01:05;;;;;;;5.47;4.10;;;;;;;15.97;40.53;100780.50;5043266;27;97837;-74
2023/05/10 04:03:32;;;;;;;5.65;3.92;;;;;;;15.87;40.51;100781.97;5045595;27;99511;-74
2023/05/10 04:06:00;;;;;;;7.47;4.30;;;;;;;15.85;40.62;100786.53;5046499;27;96889;-74
2023/05/10 04:08:26;;;;;;;6.68;4.18;;;;;;;15.88;40.67;100791.69;5033290;27;99130;-73
2023/05/10 04:10:53;;;;;;;6.20;4.00;;;;;;;15.99;40.42;100778.59;5035954;27;99096;-74
2023/05/10 04:13:19;;;;;;;8.05;4.00;;;;;;;16.03;40.37;100784.59;5039274;27;102497;-74
2023/05/10 04:15:46;;;;;;;9.73;4.15;;;;;;;16.00;40.13;100779.47;5037713;27;98687;-74
2023/05/10 04:18:12;;;;;;;5.97;3.85;;;;;;;15.82;40.56;100779.56;5049376;27;97361;-73
2023/05/10 04:20:40;;;;;;;6.03;3.83;;;;;;;15.89;40.70;100777.41;5050200;27;99519;-74
2023/05/10 04:23:06;;;;;;;6.50;4.57;;;;;;;16.00;40.62;100771.47;5052849;27;99557;-73
2023/05/10 04:25:35;;;;;;;7.90;4.50;;;;;;;15.93;40.59;100778.97;5051957;27;96825;-73
2023/05/10 04:28:01;;;;;;;8.88;4.18;;;;;;;16.18;40.21;100776.59;5046664;27;98632;-74
2023/05/10 04:30:29;;;;;;;14.35;4.05;;;;;;;16.22;39.82;100780.78;5048075;27;99241;-74
2023/05/10 04:32:55;;;;;;;7.22;4.10;;;;;;;16.26;39.57;100777.03;5051609;27;99059;-75
2023/05/10 04:35:22;;;;;;;7.25;4.43;;;;;;;16.18;39.89;100781.06;5046854;27;99202;-75
2023/05/10 04:37:50;;;;;;;7.22;4.22;;;;;;;16.33;39.57;100773.03;5049533;27;97290;-75
2023/05/10 04:40:16;;;;;;;8.85;4.28;;;;;;;16.39;39.60;100770.97;5036341;27;98959;-75
2023/05/10 04:42:44;;;;;;;6.18;3.67;;;;;;;16.54;39.29;100768.22;5045947;27;98944;-75
2023/05/10 04:45:15;;;;;;;8.43;3.70;;;;;;;16.65;38.98;100768.50;5043983;27;96797;-75
2023/05/10 04:47:41;;;;;;;6.38;3.60;;;;;;;16.65;38.89;100770.28;5043743;27;96778;-74
2023/05/10 04:50:08;;;;;;;8.43;3.75;;;;;;;16.61;38.94;100774.94;5045475;27;98130;-74
2023/05/10 04:52:36;;;;;;;7.95;3.70;;;;;;;16.58;39.09;100769.78;5043998;27;99529;-75
2023/05/10 04:55:04;;;;;;;6.25;3.70;;;;;;;16.75;38.64;100760.78;5045921;27;96954;-74
2023/05/10 04:57:30;;;;;;;8.88;3.60;;;;;;;16.62;38.91;100771.31;5048768;27;96686;-75
2023/05/10 04:59:57;;;;;;;8.85;3.78;;;;;;;16.93;38.46;100757.00;5038618;27;98970;-75
2023/05/10 05:02:23;;;;;;;8.73;4.00;;;;;;;17.02;38.09;100760.88;5038884;27;99144;-75
2023/05/10 05:04:50;;;;;;;10.32;3.75;;;;;;;17.04;38.08;100764.34;5033946;27;97151;-74
2023/05/10 05:07:16;;;;;;;10.43;5.60;;;;;;;17.23;37.90;100764.03;5042622;27;97371;-74
2023/05/10 05:09:42;;;;;;;7.28;3.72;;;;;;;17.23;37.62;100761.38;5041312;27;99168;-73
2023/05/10 05:12:13;;;;;;;4.18;3.50;;;;;;;17.30;37.40;100760.91;5043937;27;99178;-74
2023/05/10 05:14:40;;;;;;;6.82;3.78;;;;;;;17.33;37.35;100765.16;5035726;27;96808;-74
2023/05/10 05:17:07;;;;;;;9.27;3.70;;;;;;;17.52;37.46;100755.06;5045720;27;97734;-74
2023/05/10 05:19:33;;;;;;;6.97;3.67;;;;;;;17.65;36.75;100760.50;5038427;27;98955;-75
2023/05/10 05:22:00;;;;;;;10.55;3.53;;;;;;;17.66;36.74;100762.19;5045466;27;98851;-77
2023/05/10 05:24:26;;;;;;;7.03;3.45;;;;;;;17.75;36.72;100762.47;5043709;27;98602;-75
2023/05/10 05:26:53;;;;;;;8.95;3.47;;;;;;;17.79;36.38;100760.44;5045762;27;98691;-76
2023/05/10 05:29:20;;;;;;;5.30;3.00;;;;;;;17.52;37.02;100750.53;5036819;27;98360;-74
2023/05/10 05:31:47;;;;;;;9.85;3.65;;;;;;;17.63;37.06;100760.59;5042206;27;99056;-74
2023/05/10 05:34:13;;;;;;;9.23;3.20;;;;;;;17.56;36.96;100751.22;5043556;27;98778;-73
2023/05/10 05:36:39;;;;;;;5.75;2.92;;;;;;;17.83;36.54;100751.28;5044080;27;96829;-77
2023/05/10 05:39:06;;;;;;;6.72;3.28;;;;;;;18.05;36.38;100746.22;5036044;27;98958;-75
2023/05/10 05:41:32;;;;;;;8.07;3.10;;;;;;;18.07;36.13;100751.47;5039467;27;99454;-75
2023/05/10 05:43:59;;;;;;;17.45;4.00;;;;;;;18.37;35.70;100751.25;5040898;27;96790;-75
2023/05/10 05:46:27;;;;;;;4.50;2.95;;;;;;;18.49;35.42;100745.06;5047040;27;96816;-75
2023/05/10 05:48:53;;;;;;;12.50;3.38;;;;;;;18.60;35.28;100750.56;5038696;27;99425;-76
2023/05/10 05:51:19;;;;;;;5.05;3.08;;;;;;;18.26;35.86;100754.63;5044835;27;99031;-76
2023/05/10 05:53:46;;;;;;;10.05;3.22;;;;;;;18.03;35.98;100747.31;5041008;27;96874;-74
2023/05/10 05:56:12;;;;;;;6.45;2.83;;;;;;;18.35;35.69;100746.00;5047531;27;96786;-74
2023/05/10 05:58:40;;;;;;;10.50;3.80;;;;;;;18.54;35.74;100748.28;5042262;27;102378;-75
2023/05/10 06:01:06;;;;;;;7.65;2.80;;;;;;;18.32;35.66;100748.88;5041227;27;98824;-76
2023/05/10 06:03:34;;;;;;;6.38;3.40;;;;;;;18.55;35.51;100748.22;5041789;27;98491;-75
2023/05/10 06:06:00;;;;;;;5.32;2.63;;;;;;;18.51;35.55;100751.19;5041921;27;101400;-76
2023/05/10 06:08:27;;;;;;;7.13;2.83;;;;;;;18.72;35.19;100749.72;5042509;27;101221;-76
2023/05/10 06:10:53;;;;;;;5.75;2.67;;;;;;;18.85;34.83;100749.72;5045711;27;99077;-73
2023/05/10 06:13:19;;;;;;;7.63;2.45;;;;;;;18.73;34.96;100756.78;5045748;27;96871;-76
2023/05/10 06:15:46;;;;;;;11.00;3.03;;;;;;;18.84;34.95;100753.38;5048353;27;96926;-76
2023/05/10 06:18:12;;;;;;;4.75;2.70;;;;;;;18.60;35.27;100753.25;5041691;27;100837;-75
2023/05/10 06:20:42;;;;;;;6.10;2.75;;;;;;;18.60;35.41;100748.75;5037587;27;99396;-76
2023/05/10 06:23:08;;;;;;;5.80;2.70;;;;;;;18.65;35.54;100754.63;5045515;27;96833;-76
2023/05/10 06:25:34;;;;;;;7.90;2.47;;;;;;;18.54;35.78;100749.13;5048815;27;98299;-75
2023/05/10 06:28:01;;;;;;;5.60;2.20;;;;;;;18.79;35.51;100747.47;5042363;27;98967;-73
2023/05/10 06:30:28;;;;;;;9.70;2.58;;;;;;;18.70;35.43;100747.16;5046718;27;98857;-75
2023/05/10 06:32:55;;;;;;;9.00;2.83;;;;;;;18.99;35.13;100752.28;5048982;27;97235;-76
2023/05/10 06:35:21;;;;;;;5.50;2.70;;;;;;;19.25;34.67;100751.31;5034311;27;97025;-76
2023/05/10 06:37:49;;;;;;;4.53;2.70;;;;;;;19.40;34.68;100749.34;5031822;27;99211;-76
2023/05/10 06:40:16;;;;;;;7.20;2.35;;;;;;;19.28;34.70;100743.06;5041645;27;101550;-76
2023/05/10 06:42:44;;;;;;;7.22;2.80;;;;;;;19.71;34.27;100751.53;5035393;27;98341;-77
2023/05/10 06:45:11;;;;;;;5.07;2.22;;;;;;;19.55;34.42;100750.09;5035900;27;98374;-77
2023/05/10 06:47:38;;;;;;;6.93;2.72;;;;;;;20.02;34.02;100751.97;5042419;27;99218;-77
2023/05/10 06:50:05;;;;;;;7.35;2.40;;;;;;;19.87;33.70;100740.56;5047019;27;100934;-77
2023/05/10 06:52:31;;;;;;;3.42;2.28;;;;;;;20.02;33.75;100750.13;5050211;27;96985;-76
2023/05/10 06:55:00;;;;;;;14.50;2.72;;;;;;;19.92;33.75;100748.25;5047765;27;96865;-76
2023/05/10 06:57:26;;;;;;;7.47;2.40;;;;;;;20.24;33.14;100752.06;5048959;27;99652;-76
2023/05/10 06:59:55;;;;;;;5.25;2.50;;;;;;;20.25;33.24;100741.22;5043880;27;97813;-76
2023/05/10 07:02:22;;;;;;;5.63;2.38;;;;;;;20.03;33.54;100743.78;5047018;27;96708;-76
2023/05/10 07:04:48;;;;;;;10.30;2.40;;;;;;;20.01;33.68;100753.81;5048519;27;97751;-77
2023/05/10 07:07:15;;;;;;;5.22;2.70;;;;;;;20.24;33.20;100747.56;5045837;27;98991;-76
2023/05/10 07:09:41;;;;;;;9.65;2.72;;;;;;;20.64;32.70;100741.84;5042008;27;99375;-77
2023/05/10 07:12:09;;;;;;;3.35;1.90;;;;;;;21.21;31.75;100752.56;5045014;27;97059;-77
2023/05/10 07:14:36;;;;;;;6.45;1.98;;;;;;;21.24;31.43;100741.59;5047287;27;96843;-76
2023/05/10 07:17:02;;;;;;;7.53;2.30;;;;;;;21.09;31.99;100738.25;5045254;27;98882;-75
2023/05/10 07:19:29;;;;;;;4.97;2.20;;;;;;;21.71;31.19;100739.56;5043874;27;99074;-76
2023/05/10 07:21:56;;;;;;;4.55;2.60;;;;;;;21.50;30.81;100727.88;5045181;27;96769;-76
2023/05/10 07:24:23;;;;;;;7.47;2.75;;;;;;;21.63;30.81;100733.97;5043235;27;97875;-76
2023/05/10 07:26:49;;;;;;;4.38;2.25;;;;;;;20.97;31.79;100733.84;5038834;27;102037;-77
2023/05/10 07:29:17;;;;;;;2.58;1.90;;;;;;;21.14;31.73;100729.81;5049363;27;99922;-77
2023/05/10 07:31:43;;;;;;;3.45;2.15;;;;;;;20.91;32.31;100737.03;5050938;27;96588;-76
2023/05/10 07:34:10;;;;;;;9.68;2.33;;;;;;;21.20;32.00;100737.41;5051087;27;97019;-76
2023/05/10 07:36:36;;;;;;;7.60;2.55;;;;;;;21.44;31.16;100735.47;5050990;27;99412;-77
2023/05/10 07:39:03;;;;;;;4.75;1.80;;;;;;;21.11;31.90;100731.91;5049320;27;98840;-77
2023/05/10 07:41:29;;;;;;;4.82;2.03;;;;;;;21.39;31.84;100729.63;5048122;27;97484;-77
2023/05/10 07:43:56;;;;;;;4.90;2.33;;;;;;;21.43;31.86;100728.38;5045676;27;96784;-77
2023/05/10 07:46:24;;;;;;;3.72;1.77;;;;;;;21.51;31.79;100733.13;5047203;27;101050;-77
2023/05/10 07:48:50;;;;;;;9.25;2.20;;;;;;;21.66;31.21;100734.56;5048063;27;101935;-77
2023/05/10 07:51:16;;;;;;;4.25;1.95;;;;;;;21.39;31.61;100732.31;5041486;27;96939;-76
2023/05/10 07:53:43;;;;;;;7.68;2.10;;;;;;;21.41;31.71;100726.78;5046383;27;97032;-76
2023/05/10 07:56:24;;;;;;;6.97;2.25;;;;;;;21.49;31.59;100727.03;5047607;27;98949;-76
2023/05/10 07:58:51;;;;;;;6.95;2.20;;;;;;;21.85;31.28;100736.63;5044303;27;98729;-77
2023/05/10 08:01:17;;;;;;;3.53;1.85;;;;;;;21.92;30.88;100732.44;5044880;27;97038;-75
2023/05/10 08:03:45;;;;;;;13.05;2.70;;;;;;;21.99;30.69;100738.19;5045023;27;99610;-77
2023/05/10 08:06:12;;;;;;;5.45;2.05;;;;;;;21.55;31.22;100731.03;5045682;27;99686;-76
2023/05/10 08:08:38;;;;;;;6.72;2.00;;;;;;;21.66;31.36;100731.88;5043944;27;97572;-76
2023/05/10 08:11:05;;;;;;;9.00;2.40;;;;;;;21.98;31.36;100742.72;5048080;27;97085;-78
2023/05/10 08:13:31;;;;;;;5.38;2.53;;;;;;;22.00;30.86;100734.50;5047175;27;96811;-76
2023/05/10 08:15:57;;;;;;;2.60;2.05;;;;;;;21.65;31.21;100735.56;5051183;27;101372;-76
2023/05/10 08:18:24;;;;;;;4.97;1.85;;;;;;;22.02;31.25;100736.09;5043600;27;98412;-78
2023/05/10 08:20:52;;;;;;;7.93;2.33;;;;;;;22.42;30.44;100730.91;5046826;27;97576;-77
2023/05/10 08:23:18;;;;;;;3.88;1.95;;;;;;;22.77;29.76;100730.59;5055782;27;96898;-76
2023/05/10 08:25:44;;;;;;;3.28;2.00;;;;;;;22.30;30.46;100740.03;5049651;27;99023;-78
2023/05/10 08:28:11;;;;;;;5.82;2.15;;;;;;;22.38;30.29;100736.69;5044911;27;101627;-77
2023/05/10 08:30:38;;;;;;;7.43;2.10;;;;;;;22.24;30.48;100733.31;5047466;27;97307;-77
2023/05/10 08:33:04;;;;;;;7.03;2.22;;;;;;;22.62;30.18;100740.81;5044540;27;98542;-78
2023/05/10 08:35:31;;;;;;;5.60;2.28;;;;;;;22.86;30.00;100737.03;5045229;27;102171;-78
2023/05/10 08:37:59;;;;;;;5.28;2.10;;;;;;;23.05;29.67;100729.88;5045407;27;101820;-79
2023/05/10 08:40:27;;;;;;;2.03;1.45;;;;;;;23.21;29.56;100734.78;5040949;27;97857;-78
2023/05/10 08:42:59;;;;;;;6.20;2.15;;;;;;;23.12;29.19;100730.19;5042997;27;97827;-78
2023/05/10 08:45:28;;;;;;;3.08;1.90;;;;;;;23.09;29.39;100735.03;5041081;27;100776;-79
2023/05/10 08:47:55;;;;;;;2.28;2.05;;;;;;;23.50;28.95;100734.91;5045300;27;100152;-77
2023/05/10 08:50:22;;;;;;;12.70;2.28;;;;;;;23.40;28.63;100734.00;5042590;27;98024;-77
2023/05/10 08:52:51;;;;;;;4.82;2.03;;;;;;;23.00;29.23;100742.06;5045282;27;96918;-77
2023/05/10 08:55:19;;;;;;;5.50;2.10;;;;;;;23.07;29.14;100734.28;5040471;27;97963;-76
2023/05/10 08:57:46;;;;;;;3.22;2.13;;;;;;;22.95;29.54;100744.31;5044891;27;98817;-76
2023/05/10 09:00:14;;;;;;;3.95;1.95;;;;;;;23.07;29.28;100737.84;5042658;27;99968;-77
2023/05/10 09:02:42;;;;;;;4.85;2.65;;;;;;;22.80;29.40;100737.56;5040200;27;97672;-77
2023/05/10 09:05:10;;;;;;;3.60;1.85;;;;;;;22.80;29.40;100740.25;5043233;27;102107;-77
2023/05/10 09:07:37;;;;;;;5.70;1.90;;;;;;;22.95;29.49;100741.63;5042867;27;99315;-76
2023/05/10 09:10:05;;;;;;;9.43;1.98;;;;;;;23.21;29.37;100737.50;5038917;27;97168;-76
2023/05/10 09:12:33;;;;;;;3.40;1.98;;;;;;;23.37;29.48;100735.13;5042147;27;96829;-77
2023/05/10 09:15:01;;;;;;;6.22;2.00;;;;;;;23.56;29.48;100739.78;5041166;27;99100;-77
2023/05/10 09:17:29;;;;;;;5.60;2.20;;;;;;;23.31;29.20;100737.50;5042603;27;99226;-77
2023/05/10 09:19:58;;;;;;;6.10;1.80;;;;;;;23.77;28.83;100739.66;5049077;27;97687;-77
2023/05/10 09:22:25;;;;;;;2.75;2.00;;;;;;;23.66;28.83;100748.75;5042715;27;96972;-76
2023/05/10 09:25:04;;;;;;;7.15;2.35;;;;;;;23.19;29.15;100744.84;5038708;27;101857;-77
2023/05/10 09:27:30;;;;;;;5.20;2.13;;;;;;;23.42;29.21;100738.28;5042149;27;98792;-77
2023/05/10 09:29:58;;;;;;;4.70;2.17;;;;;;;23.48;28.96;100741.44;5046416;27;97479;-76
2023/05/10 09:32:37;;;;;;;5.03;1.95;;;;;;;23.68;29.02;100748.59;5049087;27;97296;-78
2023/05/10 09:35:07;;;;;;;5.25;2.03;;;;;;;23.35;29.51;100747.91;5040171;27;98970;-76
2023/05/10 09:37:34;;;;;;;3.60;1.88;;;;;;;23.32;29.58;100740.06;5042182;27;98006;-77
2023/05/10 09:40:00;;;;;;;3.65;1.92;;;;;;;23.50;29.84;100745.69;5046611;27;97931;-77
2023/05/10 09:42:26;;;;;;;4.60;2.17;;;;;;;23.52;29.71;100746.41;5041152;27;97108;-77
2023/05/10 09:44:53;;;;;;;3.53;1.98;;;;;;;23.61;29.28;100742.91;5047397;27;97667;-76
2023/05/10 09:47:21;;;;;;;4.60;2.15;;;;;;;23.92;29.13;100745.53;5044358;27;97656;-78
2023/05/10 09:49:53;;;;;;;4.60;1.90;;;;;;;23.95;28.80;100742.56;5040933;27;97465;-77
2023/05/10 09:52:19;;;;;;;17.35;2.40;;;;;;;24.16;28.46;100752.22;5039147;27;99442;-77
2023/05/10 09:54:54;;;;;;;3.03;2.10;;;;;;;24.34;28.48;100755.13;5049052;27;97609;-77
2023/05/10 09:57:22;;;;;;;5.70;2.33;;;;;;;24.40;28.65;100751.84;5038524;27;101010;-77
2023/05/10 09:59:50;;;;;;;6.78;2.15;;;;;;;24.38;28.38;100750.25;5044096;27;96848;-77
2023/05/10 10:02:17;;;;;;;5.25;2.10;;;;;;;24.26;28.55;100759.50;5040329;27;97217;-77
2023/05/10 10:04:44;;;;;;;4.72;2.40;;;;;;;23.56;29.25;100747.03;5043008;27;99307;-78
2023/05/10 10:07:11;;;;;;;4.68;1.98;;;;;;;23.77;29.16;100754.00;5037824;27;98980;-77
2023/05/10 10:09:37;;;;;;;5.43;1.95;;;;;;;23.89;29.24;100749.38;5041886;27;97062;-77
2023/05/10 10:12:04;;;;;;;2.63;2.20;;;;;;;23.48;29.29;100750.41;5040320;27;97173;-77
2023/05/10 10:14:31;;;;;;;2.75;1.80;;;;;;;23.96;28.86;100750.50;5040591;27;101092;-77
2023/05/10 10:16:57;;;;;;;4.57;1.98;;;;;;;24.33;28.49;100744.44;5044483;27;98212;-77
2023/05/10 10:19:24;;;;;;;7.95;2.40;;;;;;;24.28;27.96;100757.53;5038418;27;98430;-78
2023/05/10 10:21:52;;;;;;;8.20;2.03;;;;;;;24.02;28.83;100746.41;5045297;27;97317;-77
2023/05/10 10:24:18;;;;;;;4.45;2.03;;;;;;;23.73;28.89;100751.75;5044452;27;99290;-77
2023/05/10 10:26:47;;;;;;;7.68;2.00;;;;;;;23.86;28.87;100754.19;5045883;27;97709;-76
2023/05/10 10:29:24;;;;;;;5.57;1.95;;;;;;;24.12;28.61;100742.69;5045363;27;100801;-77
2023/05/10 10:32:02;;;;;;;3.72;2.20;;;;;;;24.16;28.26;100743.25;5039499;27;96779;-77
2023/05/10 10:34:29;;;;;;;5.38;2.38;;;;;;;24.13;28.28;100744.41;5031952;27;98813;-77
2023/05/10 10:36:58;;;;;;;2.55;2.00;;;;;;;23.99;28.27;100734.03;5042881;27;99345;-76
2023/05/10 10:39:25;;;;;;;10.75;2.50;;;;;;;24.07;28.32;100736.88;5042033;27;96845;-77
2023/05/10 10:41:54;;;;;;;3.17;1.88;;;;;;;23.97;28.94;100736.00;5035739;27;97772;-77
2023/05/10 10:44:35;;;;;;;2.85;1.88;;;;;;;24.18;28.61;100739.44;5039635;27;99490;-77
2023/05/10 10:47:22;;;;;;;7.63;2.35;;;;;;;24.41;28.79;100737.34;5037306;27;102622;-79
2023/05/10 10:49:51;;;;;;;4.45;2.05;;;;;;;24.56;28.47;100741.28;5036684;27;96805;-77
2023/05/10 10:52:29;;;;;;;3.38;2.05;;;;;;;24.39;28.14;100746.56;5040598;27;97437;-77
2023/05/10 10:55:01;;;;;;;3.15;1.70;;;;;;;24.31;27.77;100743.72;5037664;27;99328;-78
2023/05/10 10:57:30;;;;;;;8.23;2.50;;;;;;;24.62;27.60;100739.84;5043284;27;98794;-78
2023/05/10 11:00:35;;;;;;;6.50;1.90;;;;;;;24.89;27.60;100731.88;5045573;27;97420;-77
2023/05/10 11:03:07;;;;;;;4.60;1.80;;;;;;;24.90;27.35;100733.56;5033958;27;97459;-77
2023/05/10 11:05:39;;;;;;;3.17;1.67;;;;;;;24.72;27.43;100735.31;5036644;27;98817;-77
2023/05/10 11:08:12;;;;;;;8.27;2.17;;;;;;;24.92;27.66;100741.53;5043169;27;98808;-77
2023/05/10 11:10:40;;;;;;;3.97;2.17;;;;;;;24.70;27.41;100742.69;5038088;27;98538;-77
2023/05/10 11:13:08;;;;;;;3.60;2.00;;;;;;;24.91;27.85;100738.00;5046653;27;98199;-76
2023/05/10 11:15:37;;;;;;;7.22;1.90;;;;;;;24.60;27.82;100749.97;5042706;27;98261;-77
2023/05/10 11:18:18;;;;;;;5.03;2.00;;;;;;;24.17;27.82;100740.44;5038183;27;99141;-78
2023/05/10 11:20:46;;;;;;;5.82;2.45;;;;;;;24.47;28.01;100735.91;5038799;27;97205;-77
2023/05/10 11:23:17;;;;;;;5.00;1.95;;;;;;;24.61;27.32;100736.28;5037159;27;97166;-78
2023/05/10 11:25:45;;;;;;;3.65;1.90;;;;;;;24.46;27.58;100728.81;5046902;27;100501;-77
2023/05/10 11:28:11;;;;;;;5.18;2.25;;;;;;;24.49;27.97;100725.78;5043564;27;98941;-77
2023/05/10 11:30:40;;;;;;;5.35;2.30;;;;;;;24.12;28.43;100736.44;5033426;27;97205;-77